createdAt,value
2023-03-03T06:25:24.587Z,98.85
2023-03-03T06:26:24.580Z,98.63
2023-03-03T06:27:24.545Z,98.63
2023-03-03T06:28:24.527Z,98.63
2023-03-03T06:29:24.539Z,98.53
2023-03-03T06:30:24.495Z,98.63
2023-03-03T06:31:24.588Z,98.63
2023-03-03T06:32:24.592Z,98.53
2023-03-03T06:33:24.451Z,98.53
2023-03-03T06:34:24.517Z,98.53
2023-03-03T06:35:24.536Z,98.59
2023-03-03T06:36:24.511Z,98.38
2023-03-03T06:37:24.420Z,98.18
2023-03-03T06:38:24.397Z,97.97
2023-03-03T06:39:24.398Z,97.65
2023-03-03T06:40:24.399Z,97.44
2023-03-03T06:41:24.360Z,97.55
2023-03-03T06:42:24.341Z,97.59
2023-03-03T06:43:24.362Z,97.59
2023-03-03T06:44:24.293Z,97.59
2023-03-03T06:45:24.364Z,97.55
2023-03-03T06:46:24.282Z,97.55
2023-03-03T06:47:24.283Z,97.65
2023-03-03T06:48:24.297Z,97.65
2023-03-03T06:49:24.243Z,97.55
2023-03-03T06:50:24.219Z,97.55
2023-03-03T06:51:24.304Z,97.55
2023-03-03T06:52:24.240Z,97.34
2023-03-03T06:53:24.213Z,97.28
2023-03-03T06:54:26.542Z,97.38
2023-03-03T06:55:24.179Z,97.38
2023-03-03T06:56:24.160Z,97.38
2023-03-03T06:57:24.144Z,97.44
2023-03-03T06:58:24.179Z,97.38
2023-03-03T06:59:24.129Z,97.24
2023-03-03T07:00:24.104Z,97.24
2023-03-03T07:01:24.214Z,97.24
2023-03-03T07:02:24.093Z,97.13
2023-03-03T07:03:24.088Z,97.13
2023-03-03T07:04:24.053Z,97.24
2023-03-03T07:05:24.051Z,97.24
2023-03-03T07:06:24.033Z,97.24
2023-03-03T07:07:24.035Z,97.24
2023-03-03T07:08:24.120Z,97.34
2023-03-03T07:09:31.560Z,97.24
2023-03-03T07:10:24.009Z,97.24
2023-03-03T07:11:23.957Z,97.13
2023-03-03T07:12:23.976Z,97.13
2023-03-03T07:13:23.934Z,96.82
2023-03-03T07:14:23.923Z,96.71
2023-03-03T07:15:23.899Z,96.61
2023-03-03T07:16:23.962Z,96.50
2023-03-03T07:17:23.877Z,96.71
2023-03-03T07:18:23.889Z,96.67
2023-03-03T07:19:23.899Z,96.50
2023-03-03T07:20:23.923Z,96.61
2023-03-03T07:21:23.839Z,96.71
2023-03-03T07:22:23.828Z,96.56
2023-03-03T07:23:23.852Z,96.46
2023-03-03T07:24:23.893Z,96.46
2023-03-03T07:25:23.821Z,96.46
2023-03-03T07:26:23.766Z,96.25
2023-03-03T07:27:23.741Z,96.19
2023-03-03T07:28:23.747Z,96.25
2023-03-03T07:29:23.785Z,96.25
2023-03-03T07:30:23.724Z,96.25
2023-03-03T07:31:23.700Z,96.25
2023-03-03T07:32:23.760Z,96.25
2023-03-03T07:33:23.700Z,96.15
2023-03-03T07:34:23.692Z,96.15
2023-03-03T07:35:23.653Z,95.83
2023-03-03T07:36:23.641Z,95.73
2023-03-03T07:37:23.642Z,95.88
2023-03-03T07:38:23.618Z,96.09
2023-03-03T07:39:23.610Z,96.09
2023-03-03T07:40:23.587Z,96.15
2023-03-03T07:41:23.615Z,96.04
2023-03-03T07:42:23.574Z,96.04
2023-03-03T07:43:23.554Z,96.15
2023-03-03T07:44:23.574Z,96.04
2023-03-03T07:45:23.551Z,96.15
2023-03-03T07:46:23.563Z,95.94
2023-03-03T07:47:23.507Z,95.73
2023-03-03T07:48:23.461Z,96.04
2023-03-03T07:49:23.483Z,96.04
2023-03-03T07:50:23.454Z,96.15
2023-03-03T07:51:23.426Z,95.94
2023-03-03T07:52:23.474Z,95.94
2023-03-03T07:53:23.433Z,95.94
2023-03-03T07:54:23.462Z,95.83
2023-03-03T07:55:23.422Z,95.68
2023-03-03T07:56:23.370Z,95.37
2023-03-03T07:57:23.366Z,95.48
2023-03-03T07:58:23.364Z,95.52
2023-03-03T07:59:23.327Z,95.37
2023-03-03T08:00:23.320Z,95.37
2023-03-03T08:01:23.326Z,95.37
2023-03-03T08:02:23.349Z,95.48
2023-03-03T08:03:23.308Z,95.27
2023-03-03T08:04:23.397Z,95.27
2023-03-03T08:05:23.417Z,95.37
2023-03-03T08:06:23.268Z,95.17
2023-03-03T08:07:23.216Z,95.27
2023-03-03T08:08:23.240Z,95.37
2023-03-03T08:09:23.201Z,95.48
2023-03-03T08:10:23.318Z,95.58
2023-03-03T08:11:23.174Z,95.37
2023-03-03T08:12:23.187Z,95.17
2023-03-03T08:13:23.156Z,95.27
2023-03-03T08:14:23.162Z,95.27
2023-03-03T08:15:23.137Z,95.17
2023-03-03T08:16:23.167Z,95.27
2023-03-03T08:17:23.078Z,95.27
2023-03-03T08:18:23.058Z,95.27
2023-03-03T08:19:23.087Z,95.27
2023-03-03T08:20:23.076Z,95.17
2023-03-03T08:21:23.058Z,95.17
2023-03-03T08:22:23.026Z,95.17
2023-03-03T08:23:23.060Z,95.27
2023-03-03T08:24:23.045Z,95.37
2023-03-03T08:25:22.975Z,95.37
2023-03-03T08:26:22.977Z,95.48
2023-03-03T08:27:23.006Z,95.48
2023-03-03T08:28:22.963Z,95.58
2023-03-03T08:29:22.937Z,95.58
2023-03-03T08:30:22.955Z,95.58
2023-03-03T08:31:39.636Z,95.48
2023-03-03T08:32:23.959Z,95.06
2023-03-03T08:33:22.912Z,94.92
2023-03-03T08:34:22.892Z,94.85
2023-03-03T08:35:22.915Z,94.96
2023-03-03T08:36:22.856Z,95.02
2023-03-03T08:37:22.830Z,94.92
2023-03-03T08:38:22.801Z,94.81
2023-03-03T08:39:22.776Z,94.92
2023-03-03T08:40:22.795Z,94.92
2023-03-03T08:41:22.771Z,94.70
2023-03-03T08:42:22.761Z,94.60
2023-03-03T08:43:22.715Z,94.39
2023-03-03T08:44:22.720Z,94.49
2023-03-03T08:45:22.740Z,94.49
2023-03-03T08:46:22.723Z,94.70
2023-03-03T08:47:22.709Z,94.70
2023-03-03T08:48:22.662Z,94.81
2023-03-03T08:49:31.844Z,94.85
2023-03-03T08:50:31.234Z,94.81
2023-03-03T08:51:22.624Z,94.81
2023-03-03T08:52:22.605Z,94.81
2023-03-03T08:53:22.619Z,94.92
2023-03-03T08:54:22.647Z,94.49
2023-03-03T08:55:22.566Z,94.49
2023-03-03T08:56:22.559Z,94.70
2023-03-03T08:57:22.540Z,94.92
2023-03-03T08:58:33.441Z,94.85
2023-03-03T08:59:23.526Z,95.06
2023-03-03T09:00:22.496Z,95.17
2023-03-03T09:01:22.579Z,95.33
2023-03-03T09:02:22.492Z,95.12
2023-03-03T09:03:22.517Z,95.23
2023-03-03T09:04:22.531Z,95.12
2023-03-03T09:05:22.441Z,94.81
2023-03-03T09:06:22.440Z,94.96
2023-03-03T09:07:22.410Z,95.27
2023-03-03T09:08:22.415Z,95.37
2023-03-03T09:09:22.383Z,95.23
2023-03-03T09:10:22.358Z,95.12
2023-03-03T09:11:22.371Z,95.27
2023-03-03T09:12:22.346Z,95.23
2023-03-03T09:13:22.328Z,95.23
2023-03-03T09:14:22.323Z,95.23
2023-03-03T09:15:22.295Z,95.02
2023-03-03T09:16:22.437Z,95.02
2023-03-03T09:17:22.297Z,94.92
2023-03-03T09:18:22.259Z,94.92
2023-03-03T09:19:22.330Z,94.92
2023-03-03T09:20:22.232Z,94.92
2023-03-03T09:21:22.225Z,95.02
2023-03-03T09:22:22.198Z,95.33
2023-03-03T09:23:22.214Z,95.43
2023-03-03T09:24:22.179Z,95.43
2023-03-03T09:25:22.184Z,95.64
2023-03-03T09:26:22.182Z,95.43
2023-03-03T09:27:22.149Z,95.54
2023-03-03T09:28:22.119Z,95.54
2023-03-03T09:29:22.275Z,95.75
2023-03-03T09:30:22.105Z,95.54
2023-03-03T09:31:22.136Z,95.02
2023-03-03T09:32:22.152Z,95.02
2023-03-03T09:33:22.080Z,94.60
2023-03-03T09:34:22.073Z,94.45
2023-03-03T09:35:22.067Z,94.56
2023-03-03T09:36:22.017Z,94.35
2023-03-03T09:37:22.030Z,94.35
2023-03-03T09:38:22.029Z,94.45
2023-03-03T09:39:21.996Z,94.04
2023-03-03T09:40:21.967Z,93.73
2023-03-03T09:41:21.948Z,93.52
2023-03-03T09:42:21.937Z,93.62
2023-03-03T09:43:21.954Z,93.52
2023-03-03T09:44:21.918Z,93.73
2023-03-03T09:45:21.905Z,93.41
2023-03-03T09:46:21.942Z,93.41
2023-03-03T09:47:22.248Z,93.31
2023-03-03T09:48:21.889Z,93.31
2023-03-03T09:49:21.840Z,92.99
2023-03-03T09:50:21.869Z,93.10
2023-03-03T09:51:21.827Z,92.99
2023-03-03T09:52:21.806Z,92.95
2023-03-03T09:53:21.790Z,92.58
2023-03-03T09:54:21.781Z,92.68
2023-03-03T09:55:23.273Z,92.74
2023-03-03T09:56:21.757Z,92.74
2023-03-03T09:57:21.740Z,92.54
2023-03-03T09:58:21.742Z,92.33
2023-03-03T09:59:21.745Z,92.08
2023-03-03T10:00:21.716Z,91.87
2023-03-03T10:01:21.688Z,91.56
2023-03-03T10:02:21.732Z,91.25
2023-03-03T10:03:21.741Z,90.93
2023-03-03T10:04:21.758Z,90.72
2023-03-03T10:05:21.657Z,90.93
2023-03-03T10:06:21.660Z,90.72
2023-03-03T10:07:21.613Z,90.62
2023-03-03T10:08:21.626Z,90.93
2023-03-03T10:09:21.562Z,91.04
2023-03-03T10:10:21.636Z,91.35
2023-03-03T10:11:21.578Z,90.93
2023-03-03T10:12:21.548Z,90.69
2023-03-03T10:13:21.518Z,90.58
2023-03-03T10:14:21.533Z,90.31
2023-03-03T10:15:21.543Z,90.62
2023-03-03T10:16:21.625Z,90.72
2023-03-03T10:17:21.468Z,90.62
2023-03-03T10:18:21.456Z,90.62
2023-03-03T10:19:21.442Z,90.52
2023-03-03T10:20:21.440Z,90.62
2023-03-03T10:21:21.441Z,90.83
2023-03-03T10:22:21.401Z,90.41
2023-03-03T10:23:21.387Z,90.72
2023-03-03T10:24:21.423Z,90.79
2023-03-03T10:25:21.389Z,90.89
2023-03-03T10:26:25.069Z,90.69
2023-03-03T10:27:22.380Z,90.47
2023-03-03T10:28:21.324Z,90.26
2023-03-03T10:29:22.482Z,90.69
2023-03-03T10:30:37.029Z,90.79
2023-03-03T10:31:28.251Z,90.47
2023-03-03T10:32:22.412Z,90.69
2023-03-03T10:33:22.219Z,90.93
2023-03-03T10:34:21.287Z,91.66
2023-03-03T10:35:21.247Z,91.97
2023-03-03T10:36:21.260Z,92.39
2023-03-03T10:37:21.205Z,92.49
2023-03-03T10:38:21.247Z,92.18
2023-03-03T10:39:21.206Z,92.08
2023-03-03T10:40:21.181Z,92.39
2023-03-03T10:41:23.853Z,92.70
2023-03-03T10:42:21.234Z,92.80
2023-03-03T10:43:31.096Z,92.70
2023-03-03T10:44:22.384Z,92.70
2023-03-03T10:45:21.137Z,92.70
2023-03-03T10:46:21.198Z,92.66
2023-03-03T10:47:23.208Z,92.29
2023-03-03T10:48:21.150Z,92.49
2023-03-03T10:49:21.781Z,92.74
2023-03-03T10:50:21.091Z,93.05
2023-03-03T10:51:21.093Z,93.37
2023-03-03T10:52:21.034Z,93.58
2023-03-03T10:53:21.259Z,93.48
2023-03-03T10:54:21.053Z,93.48
2023-03-03T10:55:21.008Z,93.68
2023-03-03T10:56:20.970Z,93.68
2023-03-03T10:57:20.962Z,93.58
2023-03-03T10:58:21.002Z,93.79
2023-03-03T10:59:20.972Z,93.79
2023-03-03T11:00:21.080Z,93.89
2023-03-03T11:01:23.705Z,93.48
2023-03-03T11:02:20.897Z,93.58
2023-03-03T11:03:20.884Z,93.68
2023-03-03T11:04:20.893Z,93.79
2023-03-03T11:05:21.889Z,93.89
2023-03-03T11:06:20.882Z,93.64
2023-03-03T11:07:20.875Z,93.43
2023-03-03T11:08:20.861Z,93.01
2023-03-03T11:09:20.797Z,92.70
2023-03-03T11:10:20.827Z,92.49
2023-03-03T11:11:20.918Z,92.18
2023-03-03T11:12:22.545Z,92.29
2023-03-03T11:13:20.837Z,92.24
2023-03-03T11:14:20.838Z,92.35
2023-03-03T11:15:20.736Z,91.93
2023-03-03T11:16:20.771Z,91.72
2023-03-03T11:17:20.747Z,91.47
2023-03-03T11:18:23.819Z,90.75
2023-03-03T11:19:20.671Z,90.44
2023-03-03T11:20:20.663Z,90.44
2023-03-03T11:21:20.698Z,90.69
2023-03-03T11:22:20.661Z,90.79
2023-03-03T11:23:20.636Z,91.06
2023-03-03T11:24:20.595Z,90.85
2023-03-03T11:25:20.639Z,90.64
2023-03-03T11:26:20.556Z,90.64
2023-03-03T11:27:20.610Z,90.54
2023-03-03T11:28:20.543Z,90.54
2023-03-03T11:30:31.876Z,90.23
2023-03-03T11:31:32.162Z,90.23
2023-03-03T11:32:32.579Z,90.44
2023-03-03T11:33:31.813Z,90.29
2023-03-03T11:34:31.825Z,89.87
2023-03-03T11:35:31.836Z,89.98
2023-03-03T11:36:33.917Z,89.62
2023-03-03T11:37:31.761Z,89.42
2023-03-03T11:38:31.777Z,88.48
2023-03-03T11:39:31.730Z,88.07
2023-03-03T11:40:31.723Z,88.07
2023-03-03T11:41:31.734Z,88.38
2023-03-03T11:42:31.695Z,88.38
2023-03-03T11:43:36.954Z,87.82
2023-03-03T11:44:32.654Z,87.40
2023-03-03T11:45:31.658Z,86.68
2023-03-03T11:46:31.702Z,86.47
2023-03-03T11:47:32.167Z,86.61
2023-03-03T11:48:31.620Z,87.24
2023-03-03T11:49:31.597Z,87.13
2023-03-03T11:50:31.596Z,86.51
2023-03-03T11:51:31.593Z,87.13
2023-03-03T11:52:31.599Z,87.34
2023-03-03T11:53:31.547Z,87.03
2023-03-03T11:54:31.588Z,87.45
2023-03-03T11:55:31.539Z,87.30
2023-03-03T11:56:31.525Z,86.88
2023-03-03T11:57:31.499Z,86.41
2023-03-03T11:58:31.485Z,87.13
2023-03-03T11:59:31.455Z,87.19
2023-03-03T12:00:31.490Z,86.88
2023-03-03T12:01:31.472Z,86.26
2023-03-03T12:02:31.462Z,86.12
2023-03-03T12:03:31.439Z,86.33
2023-03-03T12:04:31.408Z,86.02
2023-03-03T12:05:38.984Z,85.71
2023-03-03T12:06:31.403Z,85.91
2023-03-03T12:07:31.362Z,86.36
2023-03-03T12:08:31.356Z,86.47
2023-03-03T12:09:31.349Z,87.34
2023-03-03T12:10:31.350Z,87.76
2023-03-03T12:11:31.305Z,88.02
2023-03-03T12:12:31.300Z,87.40
2023-03-03T12:13:31.308Z,86.95
2023-03-03T12:14:31.305Z,86.74
2023-03-03T12:15:31.261Z,86.64
2023-03-03T12:16:31.256Z,86.08
2023-03-03T12:17:31.245Z,85.81
2023-03-03T12:18:31.254Z,86.12
2023-03-03T12:19:31.240Z,86.54
2023-03-03T12:20:31.227Z,86.08
2023-03-03T12:21:31.283Z,84.94
2023-03-03T12:22:31.204Z,85.04
2023-03-03T12:23:31.195Z,84.94
2023-03-03T12:24:31.216Z,84.31
2023-03-03T12:25:31.169Z,84.11
2023-03-03T12:26:31.178Z,84.21
2023-03-03T12:27:31.150Z,84.31
2023-03-03T12:28:31.131Z,84.42
2023-03-03T12:29:31.122Z,84.46
2023-03-03T12:30:31.110Z,84.73
2023-03-03T12:31:31.156Z,84.83
2023-03-03T12:32:31.112Z,83.80
2023-03-03T12:33:31.051Z,84.48
2023-03-03T12:34:31.059Z,83.34
2023-03-03T12:35:31.107Z,83.55
2023-03-03T12:36:31.053Z,83.34
2023-03-03T12:37:31.025Z,83.00
2023-03-03T12:38:31.014Z,82.06
2023-03-03T12:39:35.037Z,81.85
2023-03-03T12:40:30.968Z,81.85
2023-03-03T12:41:30.970Z,81.65
2023-03-03T12:42:30.966Z,82.17
2023-03-03T12:43:30.938Z,82.27
2023-03-03T12:44:30.925Z,81.68
2023-03-03T12:45:30.893Z,81.85
2023-03-03T12:46:30.952Z,81.65
2023-03-03T12:47:30.893Z,81.51
2023-03-03T12:48:30.919Z,81.47
2023-03-03T12:49:42.538Z,79.77
2023-03-03T12:50:31.858Z,79.47
2023-03-03T12:51:30.860Z,79.16
2023-03-03T12:52:30.849Z,78.85
2023-03-03T12:53:30.875Z,78.67
2023-03-03T12:54:36.964Z,79.30
2023-03-03T12:55:31.790Z,79.33
2023-03-03T12:56:30.784Z,78.70
2023-03-03T12:57:30.833Z,78.39
2023-03-03T12:58:30.779Z,78.81
2023-03-03T12:59:30.736Z,78.36
2023-03-03T13:00:30.799Z,78.19
2023-03-03T13:01:30.807Z,79.12
2023-03-03T13:02:30.705Z,78.39
2023-03-03T13:03:32.234Z,78.64
2023-03-03T13:04:30.732Z,79.26
2023-03-03T13:05:30.670Z,79.16
2023-03-03T13:06:30.846Z,78.85
2023-03-03T13:07:30.641Z,79.57
2023-03-03T13:08:30.659Z,79.30
2023-03-03T13:09:30.735Z,79.74
2023-03-03T13:10:39.348Z,80.16
2023-03-03T13:11:30.589Z,80.02
2023-03-03T13:12:30.584Z,80.22
2023-03-03T13:13:30.534Z,79.71
2023-03-03T13:14:30.687Z,79.50
2023-03-03T13:15:33.250Z,79.60
2023-03-03T13:16:40.643Z,79.16
2023-03-03T13:17:31.528Z,78.95
2023-03-03T13:18:30.535Z,79.05
2023-03-03T13:19:30.476Z,78.50
2023-03-03T13:20:30.517Z,78.05
2023-03-03T13:21:30.483Z,78.36
2023-03-03T13:22:30.458Z,77.50
2023-03-03T13:23:30.481Z,77.08
2023-03-03T13:24:30.421Z,76.87
2023-03-03T13:25:30.471Z,76.26
2023-03-03T13:26:31.889Z,76.60
2023-03-03T13:27:30.407Z,76.50
2023-03-03T13:28:30.699Z,76.81
2023-03-03T13:29:30.351Z,77.12
2023-03-03T13:30:30.486Z,77.01
2023-03-03T13:31:30.553Z,77.01
2023-03-03T13:32:30.391Z,76.53
2023-03-03T13:33:30.324Z,75.49
2023-03-03T13:34:30.312Z,74.84
2023-03-03T13:35:30.306Z,74.12
2023-03-03T13:36:30.274Z,74.33
2023-03-03T13:37:30.312Z,73.68
2023-03-03T13:38:30.263Z,73.91
2023-03-03T13:39:30.258Z,74.12
2023-03-03T13:40:30.220Z,74.08
2023-03-03T13:41:30.224Z,73.50
2023-03-03T13:42:30.209Z,74.26
2023-03-03T13:43:30.184Z,75.29
2023-03-03T13:44:30.194Z,74.98
2023-03-03T13:45:30.221Z,75.01
2023-03-03T13:46:30.149Z,75.78
2023-03-03T13:47:30.131Z,76.15
2023-03-03T13:48:30.117Z,75.70
2023-03-03T13:49:30.151Z,74.53
2023-03-03T13:50:30.130Z,74.36
2023-03-03T13:51:30.117Z,73.47
2023-03-03T13:52:30.095Z,71.78
2023-03-03T13:53:30.094Z,71.65
2023-03-03T13:54:30.094Z,70.93
2023-03-03T13:55:30.029Z,70.42
2023-03-03T13:56:30.031Z,69.53
2023-03-03T13:57:30.076Z,68.98
2023-03-03T13:58:30.002Z,68.02
2023-03-03T13:59:30.010Z,67.10
2023-03-03T14:00:29.971Z,67.82
2023-03-03T14:01:30.064Z,67.65
2023-03-03T14:02:29.983Z,68.33
2023-03-03T14:03:29.954Z,67.07
2023-03-03T14:04:30.065Z,66.63
2023-03-03T14:05:29.976Z,65.84
2023-03-03T14:06:29.981Z,65.36
2023-03-03T14:07:29.946Z,65.77
2023-03-03T14:08:29.892Z,67.85
2023-03-03T14:09:29.850Z,68.05
2023-03-03T14:10:29.845Z,67.41
2023-03-03T14:11:29.838Z,67.00
2023-03-03T14:12:29.827Z,67.44
2023-03-03T14:13:29.790Z,68.12
2023-03-03T14:14:29.970Z,69.90
2023-03-03T14:15:29.763Z,69.25
2023-03-03T14:16:29.855Z,70.86
2023-03-03T14:17:29.749Z,68.64
2023-03-03T14:18:29.738Z,67.27
2023-03-03T14:19:29.733Z,66.45
2023-03-03T14:20:29.692Z,65.91
2023-03-03T14:21:29.672Z,65.36
2023-03-03T14:22:29.659Z,65.53
2023-03-03T14:23:29.651Z,66.45
2023-03-03T14:24:29.685Z,66.11
2023-03-03T14:25:29.632Z,65.94
2023-03-03T14:26:29.616Z,65.70
2023-03-03T14:27:29.661Z,65.42
2023-03-03T14:28:29.620Z,65.91
2023-03-03T14:29:29.552Z,65.47
2023-03-03T14:30:29.614Z,65.64
2023-03-03T14:31:29.581Z,65.58
2023-03-03T14:32:44.513Z,63.81
2023-03-03T14:33:30.506Z,63.22
2023-03-03T14:34:29.527Z,64.34
2023-03-03T14:35:29.561Z,65.73
2023-03-03T14:36:30.479Z,65.63
2023-03-03T14:37:29.448Z,65.70
2023-03-03T14:38:29.502Z,65.06
2023-03-03T14:39:29.433Z,64.82
2023-03-03T14:40:29.405Z,63.66
2023-03-03T14:41:29.368Z,63.53
2023-03-03T14:42:29.417Z,63.50
2023-03-03T14:43:29.372Z,62.88
2023-03-03T14:44:29.370Z,63.26
2023-03-03T14:45:30.626Z,63.24
2023-03-03T14:46:29.452Z,61.83
2023-03-03T14:47:36.834Z,61.76
2023-03-03T14:48:36.822Z,62.27
2023-03-03T14:49:38.029Z,62.54
2023-03-03T14:50:36.773Z,63.90
2023-03-03T14:51:36.762Z,64.03
2023-03-03T14:52:36.805Z,64.64
2023-03-03T14:53:36.811Z,64.75
2023-03-03T14:54:36.767Z,64.72
2023-03-03T14:55:37.982Z,64.61
2023-03-03T14:56:29.165Z,64.78
2023-03-03T14:57:29.175Z,65.39
2023-03-03T14:58:29.171Z,65.16
2023-03-03T14:59:29.141Z,64.64
2023-03-03T15:00:29.145Z,64.88
2023-03-03T15:01:29.121Z,65.73
2023-03-03T15:02:29.136Z,66.04
2023-03-03T15:03:29.082Z,67.07
2023-03-03T15:04:29.088Z,66.04
2023-03-03T15:05:29.064Z,66.55
2023-03-03T15:06:29.152Z,66.01
2023-03-03T15:07:29.033Z,65.36
2023-03-03T15:08:29.050Z,65.36
2023-03-03T15:09:29.014Z,65.63
2023-03-03T15:10:28.971Z,66.86
2023-03-03T15:11:28.980Z,66.25
2023-03-03T15:12:28.941Z,65.91
2023-03-03T15:13:28.959Z,65.39
2023-03-03T15:14:28.933Z,65.60
2023-03-03T15:15:28.964Z,66.28
2023-03-03T15:16:28.972Z,67.44
2023-03-03T15:17:28.881Z,67.85
2023-03-03T15:18:28.872Z,68.05
2023-03-03T15:19:28.868Z,68.60
2023-03-03T15:20:28.881Z,69.04
2023-03-03T15:21:28.828Z,69.35
2023-03-03T15:22:28.827Z,69.56
2023-03-03T15:23:28.832Z,69.90
2023-03-03T15:24:28.806Z,70.00
2023-03-03T15:25:42.353Z,70.65
2023-03-03T15:26:29.742Z,71.17
2023-03-03T15:27:28.750Z,71.06
2023-03-03T15:28:28.891Z,71.55
2023-03-03T15:29:28.712Z,71.14
2023-03-03T15:30:28.735Z,70.72
2023-03-03T15:31:28.779Z,70.83
2023-03-03T15:32:30.816Z,70.93
2023-03-03T15:33:28.706Z,71.03
2023-03-03T15:34:28.728Z,71.03
2023-03-03T15:35:28.668Z,70.79
2023-03-03T15:36:28.594Z,70.59
2023-03-03T15:37:28.604Z,70.93
2023-03-03T15:38:28.570Z,70.93
2023-03-03T15:39:37.262Z,71.48
2023-03-03T15:40:28.544Z,71.78
2023-03-03T15:41:28.511Z,72.64
2023-03-03T15:42:36.035Z,72.85
2023-03-03T15:43:28.487Z,73.09
2023-03-03T15:44:28.469Z,73.19
2023-03-03T15:45:28.547Z,73.40
2023-03-03T15:46:28.493Z,73.40
2023-03-03T15:47:28.450Z,73.81
2023-03-03T15:48:28.429Z,73.85
2023-03-03T15:49:28.425Z,73.85
2023-03-03T15:50:28.393Z,74.26
2023-03-03T15:51:28.412Z,74.36
2023-03-03T15:52:28.393Z,74.36
2023-03-03T15:53:28.415Z,74.57
2023-03-03T15:54:28.354Z,74.46
2023-03-03T15:55:28.341Z,74.46
2023-03-03T15:56:28.336Z,74.46
2023-03-03T15:57:28.356Z,74.67
2023-03-03T15:58:28.332Z,74.57
2023-03-03T15:59:28.394Z,74.57
2023-03-03T16:00:28.240Z,74.77
2023-03-03T16:01:28.295Z,74.88
2023-03-03T16:02:28.298Z,74.67
2023-03-03T16:03:28.253Z,74.77
2023-03-03T16:04:28.212Z,74.98
2023-03-03T16:05:28.296Z,74.98
2023-03-03T16:06:28.181Z,74.98
2023-03-03T16:07:28.187Z,74.98
2023-03-03T16:08:28.202Z,74.88
2023-03-03T16:09:28.132Z,75.09
2023-03-03T16:10:28.102Z,75.29
2023-03-03T16:11:28.106Z,75.39
2023-03-03T16:12:28.090Z,75.60
2023-03-03T16:13:28.165Z,75.60
2023-03-03T16:14:28.113Z,75.91
2023-03-03T16:15:28.052Z,76.15
2023-03-03T16:16:28.050Z,76.15
2023-03-03T16:17:28.042Z,76.15
2023-03-03T16:18:28.024Z,76.35
2023-03-03T16:19:28.010Z,76.25
2023-03-03T16:20:28.063Z,76.12
2023-03-03T16:21:27.989Z,76.25
2023-03-03T16:22:27.955Z,76.32
2023-03-03T16:23:27.947Z,76.56
2023-03-03T16:24:27.943Z,76.56
2023-03-03T16:25:27.919Z,76.46
2023-03-03T16:26:27.921Z,76.25
2023-03-03T16:27:27.905Z,76.46
2023-03-03T16:28:27.897Z,76.35
2023-03-03T16:29:28.382Z,76.67
2023-03-03T16:30:27.897Z,75.95
2023-03-03T16:31:27.912Z,75.74
2023-03-03T16:32:27.888Z,75.53
2023-03-03T16:33:27.823Z,75.53
2023-03-03T16:34:27.800Z,75.87
2023-03-03T16:35:27.886Z,76.08
2023-03-03T16:36:27.802Z,76.39
2023-03-03T16:37:27.792Z,76.60
2023-03-03T16:38:27.803Z,77.01
2023-03-03T16:39:27.771Z,77.32
2023-03-03T16:40:27.800Z,77.22
2023-03-03T16:41:27.754Z,77.42
2023-03-03T16:42:27.723Z,77.56
2023-03-03T16:43:27.701Z,77.87
2023-03-03T16:44:27.685Z,77.77
2023-03-03T16:45:27.804Z,77.87
2023-03-03T16:46:27.772Z,77.98
2023-03-03T16:47:27.659Z,78.18
2023-03-03T16:48:27.677Z,78.08
2023-03-03T16:49:27.637Z,78.53
2023-03-03T16:50:27.613Z,78.42
2023-03-03T16:51:27.619Z,78.94
2023-03-03T16:52:27.601Z,79.05
2023-03-03T16:53:27.602Z,79.15
2023-03-03T16:54:27.653Z,79.46
2023-03-03T16:55:27.578Z,79.56
2023-03-03T16:56:27.542Z,79.70
2023-03-03T16:57:27.531Z,79.66
2023-03-03T16:58:27.573Z,79.80
2023-03-03T16:59:27.513Z,79.80
2023-03-03T17:00:27.483Z,80.22
2023-03-03T17:01:27.482Z,80.22
2023-03-03T17:02:27.462Z,80.11
2023-03-03T17:03:27.469Z,80.11
2023-03-03T17:04:27.557Z,80.43
2023-03-03T17:05:27.485Z,80.43
2023-03-03T17:06:27.427Z,80.53
2023-03-03T17:07:27.415Z,80.94
2023-03-03T17:08:27.426Z,80.77
2023-03-03T17:09:32.976Z,80.77
2023-03-03T17:10:28.401Z,80.71
2023-03-03T17:11:27.333Z,81.12
2023-03-03T17:12:27.368Z,81.16
2023-03-03T17:13:27.323Z,81.16
2023-03-03T17:14:27.342Z,81.61
2023-03-03T17:15:27.367Z,82.44
2023-03-03T17:16:27.309Z,82.37
2023-03-03T17:17:27.285Z,82.62
2023-03-03T17:18:27.256Z,82.82
2023-03-03T17:19:27.277Z,83.24
2023-03-03T17:20:27.262Z,83.90
2023-03-03T17:21:27.262Z,84.42
2023-03-03T17:22:27.241Z,84.56
2023-03-03T17:23:27.190Z,84.67
2023-03-03T17:24:27.180Z,85.12
2023-03-03T17:25:27.157Z,85.53
2023-03-03T17:26:27.204Z,85.85
2023-03-03T17:27:27.133Z,86.51
2023-03-03T17:28:27.141Z,87.13
2023-03-03T17:29:27.217Z,87.27
2023-03-03T17:30:27.086Z,87.48
2023-03-03T17:31:27.116Z,88.00
2023-03-03T17:32:27.094Z,88.15
2023-03-03T17:33:27.072Z,88.25
2023-03-03T17:34:27.721Z,88.56
2023-03-03T17:35:27.062Z,89.02
2023-03-03T17:36:27.035Z,89.02
2023-03-03T17:37:27.115Z,89.23
2023-03-03T17:38:27.092Z,89.48
2023-03-03T17:39:26.970Z,89.48
2023-03-03T17:40:27.013Z,89.58
2023-03-03T17:41:26.964Z,89.52
2023-03-03T17:42:26.942Z,89.62
2023-03-03T17:43:26.933Z,89.66
2023-03-03T17:44:26.921Z,89.76
2023-03-03T17:45:26.900Z,89.98
2023-03-03T17:46:27.005Z,90.29
2023-03-03T17:47:26.885Z,90.44
2023-03-03T17:48:26.892Z,90.64
2023-03-03T17:49:26.856Z,90.64
2023-03-03T17:50:27.003Z,90.85
2023-03-03T17:51:26.836Z,91.27
2023-03-03T17:52:26.805Z,91.78
2023-03-03T17:53:26.793Z,92.10
2023-03-03T17:54:26.799Z,92.52
2023-03-03T17:55:26.782Z,92.72
2023-03-03T17:56:26.784Z,93.04
2023-03-03T17:57:26.737Z,93.35
2023-03-03T17:58:26.733Z,93.46
2023-03-03T17:59:26.733Z,93.46
2023-03-03T18:00:26.808Z,93.66
2023-03-03T18:01:26.818Z,93.77
2023-03-03T18:02:26.721Z,93.83
2023-03-03T18:03:26.761Z,94.14
2023-03-03T18:04:26.728Z,94.14
2023-03-03T18:05:26.649Z,94.24
2023-03-03T18:06:26.656Z,94.20
2023-03-03T18:07:26.617Z,93.99
2023-03-03T18:08:26.611Z,93.89
2023-03-03T18:09:26.625Z,93.79
2023-03-03T18:10:26.573Z,93.79
2023-03-03T18:11:26.578Z,93.85
2023-03-03T18:12:26.522Z,93.85
2023-03-03T18:13:26.528Z,93.85
2023-03-03T18:14:26.527Z,93.74
2023-03-03T18:15:26.493Z,93.70
2023-03-03T18:16:26.479Z,93.70
2023-03-03T18:17:26.464Z,93.70
2023-03-03T18:18:26.463Z,93.39
2023-03-03T18:19:26.459Z,93.18
2023-03-03T18:20:26.453Z,93.18
2023-03-03T18:21:26.436Z,93.03
2023-03-03T18:22:26.409Z,93.03
2023-03-03T18:23:26.429Z,93.03
2023-03-03T18:24:26.385Z,92.93
2023-03-03T18:25:26.393Z,92.78
2023-03-03T18:26:26.379Z,92.68
2023-03-03T18:27:26.336Z,92.57
2023-03-03T18:28:26.328Z,92.26
2023-03-03T18:29:26.346Z,92.16
2023-03-03T18:30:26.335Z,92.05
2023-03-03T18:31:26.409Z,92.11
2023-03-03T18:32:26.281Z,92.11
2023-03-03T18:33:26.281Z,92.11
2023-03-03T18:34:26.250Z,92.11
2023-03-03T18:35:26.350Z,92.01
2023-03-03T18:36:26.267Z,92.01
2023-03-03T18:37:26.197Z,91.97
2023-03-03T18:38:26.194Z,91.86
2023-03-03T18:39:26.175Z,91.76
2023-03-03T18:40:26.166Z,91.76
2023-03-03T18:41:26.158Z,91.97
2023-03-03T18:42:26.184Z,92.07
2023-03-03T18:43:26.124Z,91.97
2023-03-03T18:44:26.105Z,91.97
2023-03-03T18:45:26.102Z,91.86
2023-03-03T18:46:26.167Z,91.76
2023-03-03T18:47:26.078Z,91.76
2023-03-03T18:48:26.060Z,91.66
2023-03-03T18:49:26.042Z,91.55
2023-03-03T18:50:26.035Z,91.45
2023-03-03T18:51:26.009Z,91.24
2023-03-03T18:52:26.037Z,91.14
2023-03-03T18:53:25.991Z,91.10
2023-03-03T18:54:25.990Z,91.10
2023-03-03T18:55:25.958Z,91.31
2023-03-03T18:56:25.966Z,91.52
2023-03-03T18:57:25.959Z,91.62
2023-03-03T18:58:25.915Z,91.62
2023-03-03T18:59:25.919Z,92.03
2023-03-03T19:00:25.884Z,92.03
2023-03-03T19:01:25.905Z,91.93
2023-03-03T19:02:25.869Z,91.93
2023-03-03T19:03:25.906Z,91.68
2023-03-03T19:04:25.923Z,91.62
2023-03-03T19:05:25.835Z,91.58
2023-03-03T19:06:25.839Z,91.27
2023-03-03T19:07:25.801Z,91.10
2023-03-03T19:08:25.809Z,90.95
2023-03-03T19:09:25.772Z,90.85
2023-03-03T19:10:34.917Z,90.85
2023-03-03T19:11:25.739Z,90.95
2023-03-03T19:12:25.720Z,90.95
2023-03-03T19:13:25.738Z,90.85
2023-03-03T19:14:25.780Z,90.85
2023-03-03T19:15:25.695Z,90.75
2023-03-03T19:16:25.708Z,90.64
2023-03-03T19:17:25.650Z,90.44
2023-03-03T19:18:25.748Z,90.12